sensor_id;sensor_type;location;lat;lon;timestamp;pressure;altitude;pressure_sealevel;temperature;humidity
64668;BME280;51077;42.716;23.344;2022-11-20T00:01:40;94667.50;;;16.04;59.97
64668;BME280;51077;42.716;23.344;2022-11-20T00:04:06;94657.88;;;16.05;60.01
64668;BME280;51077;42.716;23.344;2022-11-20T00:06:31;94670.47;;;16.06;59.92
64668;BME280;51077;42.716;23.344;2022-11-20T00:08:58;94664.91;;;16.06;59.89
64668;BME280;51077;42.716;23.344;2022-11-20T00:11:26;94660.84;;;16.07;59.98
64668;BME280;51077;42.716;23.344;2022-11-20T00:13:54;94655.31;;;16.07;59.83
64668;BME280;51077;42.716;23.344;2022-11-20T00:16:24;94646.28;;;16.07;59.93
64668;BME280;51077;42.716;23.344;2022-11-20T00:18:51;94653.28;;;16.08;59.88
64668;BME280;51077;42.716;23.344;2022-11-20T00:21:22;94638.84;;;16.09;59.72
64668;BME280;51077;42.716;23.344;2022-11-20T00:23:49;94643.09;;;16.11;59.58
64668;BME280;51077;42.716;23.344;2022-11-20T00:26:15;94664.50;;;16.10;59.55
64668;BME280;51077;42.716;23.344;2022-11-20T00:28:43;94649.94;;;16.09;59.67
64668;BME280;51077;42.716;23.344;2022-11-20T00:31:14;94656.94;;;16.11;59.43
64668;BME280;51077;42.716;23.344;2022-11-20T00:33:40;94670.03;;;16.10;59.36
64668;BME280;51077;42.716;23.344;2022-11-20T00:36:08;94642.53;;;16.12;59.27
64668;BME280;51077;42.716;23.344;2022-11-20T00:38:34;94642.69;;;16.14;59.27
64668;BME280;51077;42.716;23.344;2022-11-20T00:41:05;94642.31;;;16.18;59.17
64668;BME280;51077;42.716;23.344;2022-11-20T00:43:31;94663.16;;;16.19;59.01
64668;BME280;51077;42.716;23.344;2022-11-20T00:46:17;94638.59;;;16.23;58.96
64668;BME280;51077;42.716;23.344;2022-11-20T00:48:43;94637.31;;;16.24;58.84
64668;BME280;51077;42.716;23.344;2022-11-20T00:51:11;94661.66;;;16.25;58.33
64668;BME280;51077;42.716;23.344;2022-11-20T00:53:37;94648.69;;;16.28;58.17
64668;BME280;51077;42.716;23.344;2022-11-20T00:56:05;94642.75;;;16.31;57.81
64668;BME280;51077;42.716;23.344;2022-11-20T00:58:33;94652.72;;;16.34;57.64
64668;BME280;51077;42.716;23.344;2022-11-20T01:01:06;94648.41;;;16.41;57.52
64668;BME280;51077;42.716;23.344;2022-11-20T01:03:32;94649.31;;;16.44;57.31
64668;BME280;51077;42.716;23.344;2022-11-20T01:06:14;94645.44;;;16.47;56.66
64668;BME280;51077;42.716;23.344;2022-11-20T01:08:40;94638.91;;;16.52;56.51
64668;BME280;51077;42.716;23.344;2022-11-20T01:11:14;94636.63;;;16.58;56.05
64668;BME280;51077;42.716;23.344;2022-11-20T01:13:41;94636.97;;;16.62;55.40
64668;BME280;51077;42.716;23.344;2022-11-20T01:18:33;94626.19;;;16.74;55.02
64668;BME280;51077;42.716;23.344;2022-11-20T01:21:07;94632.22;;;16.80;54.42
64668;BME280;51077;42.716;23.344;2022-11-20T01:23:38;94651.41;;;16.86;54.43
64668;BME280;51077;42.716;23.344;2022-11-20T01:26:06;94623.44;;;16.91;54.17
64668;BME280;51077;42.716;23.344;2022-11-20T01:28:33;94620.25;;;16.95;54.02
64668;BME280;51077;42.716;23.344;2022-11-20T01:30:59;94613.00;;;16.99;53.53
64668;BME280;51077;42.716;23.344;2022-11-20T01:33:24;94622.78;;;17.00;53.61
64668;BME280;51077;42.716;23.344;2022-11-20T01:35:51;94616.13;;;17.03;53.26
64668;BME280;51077;42.716;23.344;2022-11-20T01:38:16;94599.81;;;17.07;52.99
64668;BME280;51077;42.716;23.344;2022-11-20T01:40:42;94601.41;;;17.11;52.94
64668;BME280;51077;42.716;23.344;2022-11-20T01:43:17;94600.28;;;17.14;52.55
64668;BME280;51077;42.716;23.344;2022-11-20T01:48:27;94588.19;;;17.19;52.36
64668;BME280;51077;42.716;23.344;2022-11-20T01:50:54;94589.84;;;17.22;52.10
64668;BME280;51077;42.716;23.344;2022-11-20T01:53:24;94605.47;;;17.27;52.10
64668;BME280;51077;42.716;23.344;2022-11-20T01:55:53;94609.91;;;17.30;51.82
64668;BME280;51077;42.716;23.344;2022-11-20T01:58:22;94593.41;;;17.32;52.02
64668;BME280;51077;42.716;23.344;2022-11-20T02:00:50;94596.34;;;17.34;51.95
64668;BME280;51077;42.716;23.344;2022-11-20T02:03:16;94603.53;;;17.37;51.51
64668;BME280;51077;42.716;23.344;2022-11-20T02:05:47;94592.59;;;17.39;51.44
64668;BME280;51077;42.716;23.344;2022-11-20T02:08:15;94592.59;;;17.39;51.56
64668;BME280;51077;42.716;23.344;2022-11-20T02:10:41;94609.22;;;17.39;51.72
64668;BME280;51077;42.716;23.344;2022-11-20T02:13:06;94600.75;;;17.37;51.66
64668;BME280;51077;42.716;23.344;2022-11-20T02:15:51;94585.41;;;17.36;51.63
64668;BME280;51077;42.716;23.344;2022-11-20T02:18:19;94628.31;;;17.35;51.66
64668;BME280;51077;42.716;23.344;2022-11-20T02:20:49;94563.06;;;17.34;51.87
64668;BME280;51077;42.716;23.344;2022-11-20T02:25:55;94607.84;;;17.30;51.89
64668;BME280;51077;42.716;23.344;2022-11-20T02:28:23;94609.50;;;17.33;51.61
64668;BME280;51077;42.716;23.344;2022-11-20T02:30:48;94603.34;;;17.35;51.32
64668;BME280;51077;42.716;23.344;2022-11-20T02:33:14;94609.63;;;17.36;51.52
64668;BME280;51077;42.716;23.344;2022-11-20T02:35:42;94607.59;;;17.36;51.18
64668;BME280;51077;42.716;23.344;2022-11-20T02:38:08;94610.53;;;17.38;51.22
64668;BME280;51077;42.716;23.344;2022-11-20T02:40:33;94621.47;;;17.36;51.51
64668;BME280;51077;42.716;23.344;2022-11-20T02:42:59;94622.94;;;17.37;51.23
64668;BME280;51077;42.716;23.344;2022-11-20T02:45:24;94617.41;;;17.37;51.31
64668;BME280;51077;42.716;23.344;2022-11-20T02:47:51;94634.03;;;17.37;51.19
64668;BME280;51077;42.716;23.344;2022-11-20T02:50:17;94631.28;;;17.37;51.32
64668;BME280;51077;42.716;23.344;2022-11-20T02:52:42;94639.59;;;17.37;51.29
64668;BME280;51077;42.716;23.344;2022-11-20T02:55:08;94652.16;;;17.38;51.22
64668;BME280;51077;42.716;23.344;2022-11-20T02:57:34;94629.38;;;17.40;51.11
64668;BME280;51077;42.716;23.344;2022-11-20T02:59:59;94669.13;;;17.42;51.23
64668;BME280;51077;42.716;23.344;2022-11-20T03:02:25;94635.97;;;17.44;50.95
64668;BME280;51077;42.716;23.344;2022-11-20T03:04:50;94643.16;;;17.47;50.93
64668;BME280;51077;42.716;23.344;2022-11-20T03:07:15;94673.09;;;17.49;50.97
64668;BME280;51077;42.716;23.344;2022-11-20T03:09:41;94660.13;;;17.51;51.00
64668;BME280;51077;42.716;23.344;2022-11-20T03:12:06;94675.47;;;17.52;50.93
64668;BME280;51077;42.716;23.344;2022-11-20T03:14:32;94682.66;;;17.55;50.96
64668;BME280;51077;42.716;23.344;2022-11-20T03:16:57;94668.78;;;17.55;50.86
64668;BME280;51077;42.716;23.344;2022-11-20T03:19:23;94684.69;;;17.55;51.04
64668;BME280;51077;42.716;23.344;2022-11-20T03:21:49;94680.63;;;17.56;50.96
64668;BME280;51077;42.716;23.344;2022-11-20T03:24:14;94673.00;;;17.56;50.98
64668;BME280;51077;42.716;23.344;2022-11-20T03:26:40;94682.06;;;17.57;51.04
64668;BME280;51077;42.716;23.344;2022-11-20T03:29:06;94684.25;;;17.58;51.01
64668;BME280;51077;42.716;23.344;2022-11-20T03:31:36;94691.31;;;17.59;51.25
64668;BME280;51077;42.716;23.344;2022-11-20T03:34:03;94694.06;;;17.59;51.23
64668;BME280;51077;42.716;23.344;2022-11-20T03:36:29;94690.00;;;17.61;51.13
64668;BME280;51077;42.716;23.344;2022-11-20T03:38:56;94697.59;;;17.60;51.17
64668;BME280;51077;42.716;23.344;2022-11-20T03:41:28;94687.81;;;17.59;51.30
64668;BME280;51077;42.716;23.344;2022-11-20T03:43:56;94702.41;;;17.59;51.25
64668;BME280;51077;42.716;23.344;2022-11-20T03:46:22;94695.38;;;17.58;51.33
64668;BME280;51077;42.716;23.344;2022-11-20T03:48:48;94700.91;;;17.58;51.32
64668;BME280;51077;42.716;23.344;2022-11-20T03:51:15;94701.66;;;17.59;51.21
64668;BME280;51077;42.716;23.344;2022-11-20T03:53:43;94684.25;;;17.58;51.25
64668;BME280;51077;42.716;23.344;2022-11-20T03:56:09;94672.44;;;17.58;51.49
64668;BME280;51077;42.716;23.344;2022-11-20T03:58:36;94678.56;;;17.56;51.31
64668;BME280;51077;42.716;23.344;2022-11-20T04:01:18;94677.66;;;17.54;51.44
64668;BME280;51077;42.716;23.344;2022-11-20T04:03:44;94681.03;;;17.52;51.61
64668;BME280;51077;42.716;23.344;2022-11-20T04:08:37;94685.50;;;17.48;51.77
64668;BME280;51077;42.716;23.344;2022-11-20T04:11:17;94682.75;;;17.48;51.73
64668;BME280;51077;42.716;23.344;2022-11-20T04:13:46;94688.28;;;17.48;51.77
64668;BME280;51077;42.716;23.344;2022-11-20T04:16:12;94685.38;;;17.46;51.70
64668;BME280;51077;42.716;23.344;2022-11-20T04:18:38;94691.06;;;17.48;51.71
64668;BME280;51077;42.716;23.344;2022-11-20T04:21:04;94694.41;;;17.46;51.86
64668;BME280;51077;42.716;23.344;2022-11-20T04:23:30;94693.09;;;17.47;51.71
64668;BME280;51077;42.716;23.344;2022-11-20T04:26:04;94668.88;;;17.48;51.73
64668;BME280;51077;42.716;23.344;2022-11-20T04:28:30;94671.50;;;17.46;51.87
64668;BME280;51077;42.716;23.344;2022-11-20T04:31:04;94683.88;;;17.45;51.87
64668;BME280;51077;42.716;23.344;2022-11-20T04:33:30;94669.84;;;17.43;52.02
64668;BME280;51077;42.716;23.344;2022-11-20T04:36:00;94674.66;;;17.42;51.83
64668;BME280;51077;42.716;23.344;2022-11-20T04:38:26;94688.53;;;17.42;51.93
64668;BME280;51077;42.716;23.344;2022-11-20T04:40:56;94688.53;;;17.42;51.88
64668;BME280;51077;42.716;23.344;2022-11-20T04:43:21;94693.34;;;17.42;52.06
64668;BME280;51077;42.716;23.344;2022-11-20T04:45:53;94727.53;;;17.44;51.81
64668;BME280;51077;42.716;23.344;2022-11-20T04:48:19;94702.16;;;17.48;51.76
64668;BME280;51077;42.716;23.344;2022-11-20T04:50:44;94673.09;;;17.49;51.42
64668;BME280;51077;42.716;23.344;2022-11-20T04:53:10;94677.19;;;17.48;51.43
64668;BME280;51077;42.716;23.344;2022-11-20T04:55:35;94679.56;;;17.51;51.52
64668;BME280;51077;42.716;23.344;2022-11-20T04:58:00;94676.78;;;17.51;51.55
64668;BME280;51077;42.716;23.344;2022-11-20T05:00:26;94673.41;;;17.53;51.45
64668;BME280;51077;42.716;23.344;2022-11-20T05:02:51;94674.00;;;17.51;51.62
64668;BME280;51077;42.716;23.344;2022-11-20T05:05:16;94668.59;;;17.53;51.41
64668;BME280;51077;42.716;23.344;2022-11-20T05:07:42;94659.00;;;17.54;51.38
64668;BME280;51077;42.716;23.344;2022-11-20T05:10:08;94660.28;;;17.53;51.41
64668;BME280;51077;42.716;23.344;2022-11-20T05:12:33;94656.78;;;17.53;51.63
64668;BME280;51077;42.716;23.344;2022-11-20T05:14:58;94647.72;;;17.52;51.60
64668;BME280;51077;42.716;23.344;2022-11-20T05:17:24;94648.44;;;17.53;51.39
64668;BME280;51077;42.716;23.344;2022-11-20T05:19:49;94653.28;;;17.52;51.63
64668;BME280;51077;42.716;23.344;2022-11-20T05:22:14;94654.00;;;17.53;51.28
64668;BME280;51077;42.716;23.344;2022-11-20T05:24:40;94649.34;;;17.55;51.37
64668;BME280;51077;42.716;23.344;2022-11-20T05:27:05;94663.06;;;17.53;51.25
64668;BME280;51077;42.716;23.344;2022-11-20T05:29:31;94654.19;;;17.55;51.40
64668;BME280;51077;42.716;23.344;2022-11-20T05:31:56;94646.59;;;17.55;51.42
64668;BME280;51077;42.716;23.344;2022-11-20T05:34:21;94650.66;;;17.54;51.38
64668;BME280;51077;42.716;23.344;2022-11-20T05:36:47;94648.63;;;17.55;51.57
64668;BME280;51077;42.716;23.344;2022-11-20T05:39:13;94649.34;;;17.55;53.60
64668;BME280;51077;42.716;23.344;2022-11-20T05:41:38;94654.72;;;17.53;54.22
64668;BME280;51077;42.716;23.344;2022-11-20T05:44:04;94644.03;;;17.50;54.46
64668;BME280;51077;42.716;23.344;2022-11-20T05:46:29;94652.22;;;17.48;54.77
64668;BME280;51077;42.716;23.344;2022-11-20T05:48:56;94655.56;;;17.46;54.86
64668;BME280;51077;42.716;23.344;2022-11-20T05:51:22;94657.44;;;17.44;55.26
64668;BME280;51077;42.716;23.344;2022-11-20T05:53:48;94662.09;;;17.41;55.06
64668;BME280;51077;42.716;23.344;2022-11-20T05:56:16;94686.31;;;17.41;55.37
64668;BME280;51077;42.716;23.344;2022-11-20T05:58:42;94663.56;;;17.42;55.37
64668;BME280;51077;42.716;23.344;2022-11-20T06:01:19;94653.22;;;17.43;55.27
64668;BME280;51077;42.716;23.344;2022-11-20T06:03:45;94648.22;;;17.41;55.24
64668;BME280;51077;42.716;23.344;2022-11-20T06:06:13;94654.53;;;17.42;55.14
64668;BME280;51077;42.716;23.344;2022-11-20T06:08:39;94656.72;;;17.43;54.90
64668;BME280;51077;42.716;23.344;2022-11-20T06:11:05;94690.31;;;17.47;54.70
64668;BME280;51077;42.716;23.344;2022-11-20T06:13:32;94668.88;;;17.48;54.62
64668;BME280;51077;42.716;23.344;2022-11-20T06:15:57;94667.56;;;17.49;54.51
64668;BME280;51077;42.716;23.344;2022-11-20T06:18:22;94657.34;;;17.51;54.22
64668;BME280;51077;42.716;23.344;2022-11-20T06:20:48;94649.03;;;17.51;54.18
64668;BME280;51077;42.716;23.344;2022-11-20T06:23:13;94633.25;;;17.54;54.29
64668;BME280;51077;42.716;23.344;2022-11-20T06:25:40;94636.94;;;17.56;54.07
64668;BME280;51077;42.716;23.344;2022-11-20T06:28:06;94646.72;;;17.57;53.91
64668;BME280;51077;42.716;23.344;2022-11-20T06:30:31;94662.06;;;17.58;53.89
64668;BME280;51077;42.716;23.344;2022-11-20T06:32:56;94659.47;;;17.61;53.95
64668;BME280;51077;42.716;23.344;2022-11-20T06:35:22;94649.81;;;17.62;53.75
64668;BME280;51077;42.716;23.344;2022-11-20T06:37:47;94670.72;;;17.63;53.75
64668;BME280;51077;42.716;23.344;2022-11-20T06:40:13;94673.66;;;17.65;53.75
64668;BME280;51077;42.716;23.344;2022-11-20T06:42:38;94657.88;;;17.67;53.57
64668;BME280;51077;42.716;23.344;2022-11-20T06:45:04;94649.75;;;17.69;53.30
64668;BME280;51077;42.716;23.344;2022-11-20T06:47:29;94656.75;;;17.70;53.31
64668;BME280;51077;42.716;23.344;2022-11-20T06:49:54;94669.31;;;17.71;53.44
64668;BME280;51077;42.716;23.344;2022-11-20T06:52:20;94670.97;;;17.74;53.15
64668;BME280;51077;42.716;23.344;2022-11-20T06:54:46;94691.88;;;17.75;53.07
64668;BME280;51077;42.716;23.344;2022-11-20T06:57:11;94680.22;;;17.77;52.91
64668;BME280;51077;42.716;23.344;2022-11-20T06:59:36;94671.28;;;17.78;52.88
64668;BME280;51077;42.716;23.344;2022-11-20T07:02:02;94672.19;;;17.81;52.88
64668;BME280;51077;42.716;23.344;2022-11-20T07:04:27;94681.81;;;17.80;52.64
64668;BME280;51077;42.716;23.344;2022-11-20T07:06:52;94675.13;;;17.83;52.59
64668;BME280;51077;42.716;23.344;2022-11-20T07:09:18;94668.25;;;17.84;52.35
64668;BME280;51077;42.716;23.344;2022-11-20T07:11:43;94687.69;;;17.84;52.35
64668;BME280;51077;42.716;23.344;2022-11-20T07:14:08;94703.63;;;17.83;52.62
64668;BME280;51077;42.716;23.344;2022-11-20T07:16:34;94713.84;;;17.81;52.33
64668;BME280;51077;42.716;23.344;2022-11-20T07:18:59;94722.16;;;17.81;52.44
64668;BME280;51077;42.716;23.344;2022-11-20T07:21:24;94716.44;;;17.79;52.37
64668;BME280;51077;42.716;23.344;2022-11-20T07:23:50;94717.75;;;17.78;52.44
64668;BME280;51077;42.716;23.344;2022-11-20T07:26:15;94708.69;;;17.77;52.57
64668;BME280;51077;42.716;23.344;2022-11-20T07:28:44;94705.19;;;17.77;52.53
64668;BME280;51077;42.716;23.344;2022-11-20T07:31:10;94693.34;;;17.76;52.58
64668;BME280;51077;42.716;23.344;2022-11-20T07:33:36;94691.88;;;17.75;52.60
64668;BME280;51077;42.716;23.344;2022-11-20T07:36:02;94695.22;;;17.74;52.48
64668;BME280;51077;42.716;23.344;2022-11-20T07:38:27;94713.16;;;17.73;52.63
64668;BME280;51077;42.716;23.344;2022-11-20T07:40:57;94723.53;;;17.72;52.67
64668;BME280;51077;42.716;23.344;2022-11-20T07:43:23;94725.56;;;17.72;52.81
64668;BME280;51077;42.716;23.344;2022-11-20T07:45:49;94728.31;;;17.72;52.60
64668;BME280;51077;42.716;23.344;2022-11-20T07:48:14;94717.06;;;17.70;52.63
64668;BME280;51077;42.716;23.344;2022-11-20T07:50:39;94716.34;;;17.69;52.75
64668;BME280;51077;42.716;23.344;2022-11-20T07:53:05;94714.88;;;17.68;52.71
64668;BME280;51077;42.716;23.344;2022-11-20T07:55:31;94713.41;;;17.67;52.95
64668;BME280;51077;42.716;23.344;2022-11-20T07:57:57;94708.44;;;17.66;52.98
64668;BME280;51077;42.716;23.344;2022-11-20T08:00:24;94722.31;;;17.66;52.78
64668;BME280;51077;42.716;23.344;2022-11-20T08:02:50;94712.50;;;17.65;53.01
64668;BME280;51077;42.716;23.344;2022-11-20T08:05:15;94704.78;;;17.63;53.18
64668;BME280;51077;42.716;23.344;2022-11-20T08:07:42;94702.72;;;17.64;53.11
64668;BME280;51077;42.716;23.344;2022-11-20T08:10:10;94703.47;;;17.64;53.02
64668;BME280;51077;42.716;23.344;2022-11-20T08:12:36;94715.88;;;17.63;52.99
64668;BME280;51077;42.716;23.344;2022-11-20T08:15:20;94712.34;;;17.63;53.13
64668;BME280;51077;42.716;23.344;2022-11-20T08:17:45;94699.78;;;17.62;52.90
64668;BME280;51077;42.716;23.344;2022-11-20T08:20:11;94695.69;;;17.63;53.00
64668;BME280;51077;42.716;23.344;2022-11-20T08:22:36;94705.31;;;17.62;53.09
64668;BME280;51077;42.716;23.344;2022-11-20T08:25:02;94699.03;;;17.61;52.82
64668;BME280;51077;42.716;23.344;2022-11-20T08:27:27;94695.69;;;17.63;53.05
64668;BME280;51077;42.716;23.344;2022-11-20T08:29:53;94700.50;;;17.62;52.85
64668;BME280;51077;42.716;23.344;2022-11-20T08:32:18;94693.50;;;17.61;53.07
64668;BME280;51077;42.716;23.344;2022-11-20T08:34:44;94715.13;;;17.63;53.14
64668;BME280;51077;42.716;23.344;2022-11-20T08:37:09;94726.78;;;17.61;53.37
64668;BME280;51077;42.716;23.344;2022-11-20T08:39:34;94722.56;;;17.60;53.51
64668;BME280;51077;42.716;23.344;2022-11-20T08:42:00;94741.25;;;17.59;53.29
64668;BME280;51077;42.716;23.344;2022-11-20T08:44:25;94724.44;;;17.57;53.51
64668;BME280;51077;42.716;23.344;2022-11-20T08:46:50;94718.16;;;17.57;53.50
64668;BME280;51077;42.716;23.344;2022-11-20T08:49:16;94728.09;;;17.60;55.06
64668;BME280;51077;42.716;23.344;2022-11-20T08:51:41;94763.03;;;17.63;57.85
64668;BME280;51077;42.716;23.344;2022-11-20T08:54:07;94761.00;;;17.64;57.25
64668;BME280;51077;42.716;23.344;2022-11-20T08:56:33;94749.31;;;17.65;57.63
64668;BME280;51077;42.716;23.344;2022-11-20T08:58:58;94753.56;;;17.66;57.39
64668;BME280;51077;42.716;23.344;2022-11-20T09:01:27;94759.69;;;17.65;57.13
64668;BME280;51077;42.716;23.344;2022-11-20T09:03:55;94761.88;;;17.66;57.01
64668;BME280;51077;42.716;23.344;2022-11-20T09:06:20;94763.19;;;17.65;56.93
64668;BME280;51077;42.716;23.344;2022-11-20T09:08:45;94765.81;;;17.63;56.82
64668;BME280;51077;42.716;23.344;2022-11-20T09:11:11;94776.00;;;17.61;56.89
64668;BME280;51077;42.716;23.344;2022-11-20T09:13:37;94762.72;;;17.59;56.88
64668;BME280;51077;42.716;23.344;2022-11-20T09:16:07;94764.19;;;17.60;56.77
64668;BME280;51077;42.716;23.344;2022-11-20T09:18:34;94775.84;;;17.58;56.98
64668;BME280;51077;42.716;23.344;2022-11-20T09:21:04;94768.28;;;17.59;57.05
64668;BME280;51077;42.716;23.344;2022-11-20T09:23:34;94768.28;;;17.59;57.01
64668;BME280;51077;42.716;23.344;2022-11-20T09:26:12;94777.88;;;17.58;57.19
64668;BME280;51077;42.716;23.344;2022-11-20T09:28:38;94772.19;;;17.56;57.58
64668;BME280;51077;42.716;23.344;2022-11-20T09:31:08;94766.63;;;17.56;58.11
64668;BME280;51077;42.716;23.344;2022-11-20T09:33:35;94770.53;;;17.53;58.61
64668;BME280;51077;42.716;23.344;2022-11-20T09:36:00;94768.16;;;17.49;58.73
64668;BME280;51077;42.716;23.344;2022-11-20T09:38:26;94749.72;;;17.44;58.96
64668;BME280;51077;42.716;23.344;2022-11-20T09:40:57;94751.75;;;17.44;58.93
64668;BME280;51077;42.716;23.344;2022-11-20T09:43:37;94751.03;;;17.43;59.12
64668;BME280;51077;42.716;23.344;2022-11-20T09:46:13;94741.97;;;17.43;59.11
64668;BME280;51077;42.716;23.344;2022-11-20T09:48:55;94742.88;;;17.45;58.87
64668;BME280;51077;42.716;23.344;2022-11-20T09:54:22;94737.97;;;17.53;58.69
64668;BME280;51077;42.716;23.344;2022-11-20T09:57:04;94727.94;;;17.58;58.54
64668;BME280;51077;42.716;23.344;2022-11-20T09:59:43;94725.66;;;17.64;58.56
64668;BME280;51077;42.716;23.344;2022-11-20T10:05:20;94724.44;;;17.75;58.46
64668;BME280;51077;42.716;23.344;2022-11-20T10:07:58;94708.13;;;17.79;58.19
64668;BME280;51077;42.716;23.344;2022-11-20T10:10:56;94706.97;;;17.82;58.10
64668;BME280;51077;42.716;23.344;2022-11-20T10:29:32;94688.34;;;17.75;58.66
64668;BME280;51077;42.716;23.344;2022-11-20T10:32:11;94690.22;;;17.72;59.04
64668;BME280;51077;42.716;23.344;2022-11-20T10:34:50;94690.63;;;17.69;58.78
64668;BME280;51077;42.716;23.344;2022-11-20T10:37:22;94694.72;;;17.68;59.02
64668;BME280;51077;42.716;23.344;2022-11-20T10:40:04;94700.84;;;17.66;59.11
64668;BME280;51077;42.716;23.344;2022-11-20T10:42:47;94690.91;;;17.63;58.97
64668;BME280;51077;42.716;23.344;2022-11-20T10:47:52;94702.97;;;17.58;59.50
64668;BME280;51077;42.716;23.344;2022-11-20T10:50:21;94710.41;;;17.55;59.35
64668;BME280;51077;42.716;23.344;2022-11-20T10:55:45;94683.97;;;17.54;59.53
64668;BME280;51077;42.716;23.344;2022-11-20T10:58:41;94687.16;;;17.51;59.69
64668;BME280;51077;42.716;23.344;2022-11-20T11:01:16;94703.63;;;17.49;59.83
64668;BME280;51077;42.716;23.344;2022-11-20T11:03:42;94722.16;;;17.46;60.34
64668;BME280;51077;42.716;23.344;2022-11-20T11:09:01;94747.03;;;17.37;61.20
64668;BME280;51077;42.716;23.344;2022-11-20T11:11:33;94745.22;;;17.31;61.67
64668;BME280;51077;42.716;23.344;2022-11-20T11:14:13;94777.16;;;17.15;61.53
64668;BME280;51077;42.716;23.344;2022-11-20T11:16:55;94756.50;;;16.91;61.15
64668;BME280;51077;42.716;23.344;2022-11-20T11:19:20;94771.78;;;16.67;61.28
64668;BME280;51077;42.716;23.344;2022-11-20T11:24:23;94752.69;;;16.21;62.31
64668;BME280;51077;42.716;23.344;2022-11-20T11:27:11;94765.50;;;16.01;62.72
64668;BME280;51077;42.716;23.344;2022-11-20T11:29:37;94750.28;;;15.85;63.11
64668;BME280;51077;42.716;23.344;2022-11-20T11:32:23;94717.09;;;15.70;63.86
64668;BME280;51077;42.716;23.344;2022-11-20T11:35:04;94738.16;;;15.57;63.75
64668;BME280;51077;42.716;23.344;2022-11-20T11:37:35;94741.31;;;15.46;63.90
64668;BME280;51077;42.716;23.344;2022-11-20T11:40:04;94723.28;;;15.38;64.12
64668;BME280;51077;42.716;23.344;2022-11-20T11:42:30;94737.13;;;15.30;64.29
64668;BME280;51077;42.716;23.344;2022-11-20T11:44:58;94736.59;;;15.24;64.36
64668;BME280;51077;42.716;23.344;2022-11-20T11:47:37;94745.06;;;15.18;64.32
64668;BME280;51077;42.716;23.344;2022-11-20T11:52:41;94746.56;;;15.12;64.52
64668;BME280;51077;42.716;23.344;2022-11-20T11:55:09;94751.72;;;15.07;64.55
64668;BME280;51077;42.716;23.344;2022-11-20T11:58:08;94743.97;;;15.06;64.28
64668;BME280;51077;42.716;23.344;2022-11-20T12:00:39;94723.72;;;15.03;64.33
64668;BME280;51077;42.716;23.344;2022-11-20T12:03:17;94742.50;;;15.05;64.39
64668;BME280;51077;42.716;23.344;2022-11-20T12:06:32;94752.81;;;15.04;64.69
64668;BME280;51077;42.716;23.344;2022-11-20T12:08:53;94753.38;;;15.03;64.81
64668;BME280;51077;42.716;23.344;2022-11-20T12:11:47;94743.78;;;15.04;64.72
64668;BME280;51077;42.716;23.344;2022-11-20T12:14:24;94736.78;;;15.03;64.92
64668;BME280;51077;42.716;23.344;2022-11-20T12:16:52;94732.00;;;15.03;64.89
64668;BME280;51077;42.716;23.344;2022-11-20T12:19:18;94741.03;;;15.04;65.01
64668;BME280;51077;42.716;23.344;2022-11-20T12:30:16;94740.47;;;15.05;64.89
64668;BME280;51077;42.716;23.344;2022-11-20T12:43:35;94691.44;;;15.06;65.13
64668;BME280;51077;42.716;23.344;2022-11-20T12:46:37;94693.69;;;15.07;65.32
64668;BME280;51077;42.716;23.344;2022-11-20T13:05:14;94709.13;;;15.11;65.71
64668;BME280;51077;42.716;23.344;2022-11-20T13:07:42;94708.97;;;15.08;65.81
64668;BME280;51077;42.716;23.344;2022-11-20T13:10:33;94695.69;;;15.07;65.89
64668;BME280;51077;42.716;23.344;2022-11-20T13:16:02;94677.63;;;15.06;65.95
64668;BME280;51077;42.716;23.344;2022-11-20T13:18:37;94674.13;;;15.05;66.11
64668;BME280;51077;42.716;23.344;2022-11-20T13:21:34;94683.72;;;15.04;66.16
64668;BME280;51077;42.716;23.344;2022-11-20T13:29:42;94677.09;;;15.15;70.13
64668;BME280;51077;42.716;23.344;2022-11-20T13:32:18;94676.66;;;15.26;70.90
64668;BME280;51077;42.716;23.344;2022-11-20T13:35:37;94661.91;;;15.31;70.89
64668;BME280;51077;42.716;23.344;2022-11-20T13:38:07;94680.66;;;15.41;70.78
64668;BME280;51077;42.716;23.344;2022-11-20T13:40:35;94677.53;;;15.44;70.69
64668;BME280;51077;42.716;23.344;2022-11-20T13:45:32;94690.06;;;15.45;70.01
64668;BME280;51077;42.716;23.344;2022-11-20T13:48:19;94684.53;;;15.45;69.74
64668;BME280;51077;42.716;23.344;2022-11-20T14:01:59;94703.00;;;15.35;69.36
64668;BME280;51077;42.716;23.344;2022-11-20T14:04:34;94694.53;;;15.33;69.10
64668;BME280;51077;42.716;23.344;2022-11-20T14:07:01;94700.81;;;15.33;69.17
64668;BME280;51077;42.716;23.344;2022-11-20T14:09:32;94702.09;;;15.32;69.05
64668;BME280;51077;42.716;23.344;2022-11-20T14:11:58;94701.16;;;15.30;69.17
64668;BME280;51077;42.716;23.344;2022-11-20T14:14:28;94701.16;;;15.30;69.10
64668;BME280;51077;42.716;23.344;2022-11-20T14:17:28;94702.47;;;15.29;68.98
64668;BME280;51077;42.716;23.344;2022-11-20T14:19:58;94698.22;;;15.28;68.97
64668;BME280;51077;42.716;23.344;2022-11-20T14:22:26;94685.69;;;15.27;68.82
64668;BME280;51077;42.716;23.344;2022-11-20T14:27:40;94689.59;;;15.24;68.98
64668;BME280;51077;42.716;23.344;2022-11-20T14:30:18;94678.53;;;15.24;68.93
64668;BME280;51077;42.716;23.344;2022-11-20T14:32:45;94692.16;;;15.22;68.91
64668;BME280;51077;42.716;23.344;2022-11-20T14:35:24;94703.94;;;15.22;68.98
64668;BME280;51077;42.716;23.344;2022-11-20T14:37:51;94701.75;;;15.21;68.92
64668;BME280;51077;42.716;23.344;2022-11-20T14:42:50;94696.75;;;15.19;68.87
64668;BME280;51077;42.716;23.344;2022-11-20T14:45:16;94701.56;;;15.19;68.94
64668;BME280;51077;42.716;23.344;2022-11-20T14:47:42;94696.75;;;15.19;68.88
64668;BME280;51077;42.716;23.344;2022-11-20T14:50:26;94699.53;;;15.19;68.88